sensor_id;sensor_type;location;lat;lon;timestamp;P1;durP1;ratioP1;P2;durP2;ratioP2
28802;SDS011;15949;55.656;37.422;2023-03-23T00:00:33;4.07;;;3.03;;
28802;SDS011;15949;55.656;37.422;2023-03-23T00:05:41;3.85;;;2.92;;
28802;SDS011;15949;55.656;37.422;2023-03-23T00:10:55;3.45;;;3.13;;
28802;SDS011;15949;55.656;37.422;2023-03-23T00:16:03;4.50;;;3.20;;
28802;SDS011;15949;55.656;37.422;2023-03-23T00:21:09;5.40;;;2.97;;
28802;SDS011;15949;55.656;37.422;2023-03-23T00:26:15;5.70;;;3.25;;
28802;SDS011;15949;55.656;37.422;2023-03-23T00:31:20;5.45;;;3.38;;
28802;SDS011;15949;55.656;37.422;2023-03-23T00:36:26;5.65;;;3.20;;
28802;SDS011;15949;55.656;37.422;2023-03-23T00:41:32;7.35;;;4.53;;
28802;SDS011;15949;55.656;37.422;2023-03-23T00:46:38;6.40;;;4.30;;
28802;SDS011;15949;55.656;37.422;2023-03-23T00:51:49;4.13;;;3.15;;
28802;SDS011;15949;55.656;37.422;2023-03-23T00:56:55;3.63;;;3.08;;
28802;SDS011;15949;55.656;37.422;2023-03-23T01:02:01;6.55;;;3.17;;
28802;SDS011;15949;55.656;37.422;2023-03-23T01:07:06;4.68;;;3.20;;
28802;SDS011;15949;55.656;37.422;2023-03-23T01:12:13;6.45;;;3.50;;
28802;SDS011;15949;55.656;37.422;2023-03-23T01:17:20;4.72;;;3.28;;
28802;SDS011;15949;55.656;37.422;2023-03-23T01:22:26;4.03;;;3.45;;
28802;SDS011;15949;55.656;37.422;2023-03-23T01:27:31;5.10;;;3.25;;
28802;SDS011;15949;55.656;37.422;2023-03-23T01:32:37;3.92;;;2.90;;
28802;SDS011;15949;55.656;37.422;2023-03-23T01:37:43;4.35;;;3.10;;
28802;SDS011;15949;55.656;37.422;2023-03-23T01:42:49;3.50;;;2.95;;
28802;SDS011;15949;55.656;37.422;2023-03-23T01:48:00;3.40;;;2.95;;
28802;SDS011;15949;55.656;37.422;2023-03-23T01:53:08;4.40;;;3.05;;
28802;SDS011;15949;55.656;37.422;2023-03-23T01:58:19;6.80;;;3.20;;
28802;SDS011;15949;55.656;37.422;2023-03-23T02:03:30;5.15;;;2.90;;
28802;SDS011;15949;55.656;37.422;2023-03-23T02:08:37;4.10;;;3.03;;
28802;SDS011;15949;55.656;37.422;2023-03-23T02:13:45;4.78;;;3.20;;
28802;SDS011;15949;55.656;37.422;2023-03-23T02:19:03;7.70;;;3.35;;
28802;SDS011;15949;55.656;37.422;2023-03-23T02:34:50;4.28;;;3.17;;
28802;SDS011;15949;55.656;37.422;2023-03-23T02:40:03;3.92;;;3.10;;
28802;SDS011;15949;55.656;37.422;2023-03-23T02:45:14;5.53;;;2.83;;
28802;SDS011;15949;55.656;37.422;2023-03-23T02:50:23;4.93;;;3.47;;
28802;SDS011;15949;55.656;37.422;2023-03-23T02:55:30;5.07;;;3.33;;
28802;SDS011;15949;55.656;37.422;2023-03-23T03:00:36;4.55;;;3.40;;
28802;SDS011;15949;55.656;37.422;2023-03-23T03:11:05;5.13;;;3.35;;
28802;SDS011;15949;55.656;37.422;2023-03-23T03:16:20;5.60;;;3.83;;
28802;SDS011;15949;55.656;37.422;2023-03-23T03:21:39;6.90;;;3.60;;
28802;SDS011;15949;55.656;37.422;2023-03-23T03:26:48;5.43;;;3.50;;
28802;SDS011;15949;55.656;37.422;2023-03-23T03:31:57;4.70;;;3.80;;
28802;SDS011;15949;55.656;37.422;2023-03-23T03:37:05;7.00;;;3.97;;
28802;SDS011;15949;55.656;37.422;2023-03-23T03:42:11;4.97;;;3.65;;
28802;SDS011;15949;55.656;37.422;2023-03-23T03:47:17;5.43;;;3.88;;
28802;SDS011;15949;55.656;37.422;2023-03-23T03:52:23;7.93;;;4.35;;
28802;SDS011;15949;55.656;37.422;2023-03-23T03:57:28;7.60;;;4.70;;
28802;SDS011;15949;55.656;37.422;2023-03-23T04:02:34;7.10;;;4.75;;
28802;SDS011;15949;55.656;37.422;2023-03-23T04:07:40;8.88;;;5.43;;
28802;SDS011;15949;55.656;37.422;2023-03-23T04:12:46;8.40;;;5.88;;
28802;SDS011;15949;55.656;37.422;2023-03-23T04:17:55;7.95;;;5.57;;
28802;SDS011;15949;55.656;37.422;2023-03-23T04:23:01;10.30;;;6.00;;
28802;SDS011;15949;55.656;37.422;2023-03-23T04:28:07;9.90;;;6.43;;
28802;SDS011;15949;55.656;37.422;2023-03-23T04:33:15;12.00;;;6.85;;
28802;SDS011;15949;55.656;37.422;2023-03-23T04:38:21;12.43;;;7.35;;
28802;SDS011;15949;55.656;37.422;2023-03-23T04:43:28;12.13;;;7.32;;
28802;SDS011;15949;55.656;37.422;2023-03-23T04:48:34;11.25;;;7.05;;
28802;SDS011;15949;55.656;37.422;2023-03-23T04:53:41;12.93;;;7.55;;
28802;SDS011;15949;55.656;37.422;2023-03-23T04:58:47;13.10;;;7.60;;
28802;SDS011;15949;55.656;37.422;2023-03-23T05:03:52;13.50;;;7.60;;
28802;SDS011;15949;55.656;37.422;2023-03-23T05:08:58;13.18;;;7.72;;
28802;SDS011;15949;55.656;37.422;2023-03-23T05:14:04;11.55;;;7.47;;
28802;SDS011;15949;55.656;37.422;2023-03-23T05:19:10;12.55;;;7.70;;
28802;SDS011;15949;55.656;37.422;2023-03-23T05:24:15;13.40;;;8.00;;
28802;SDS011;15949;55.656;37.422;2023-03-23T05:29:21;11.52;;;8.10;;
28802;SDS011;15949;55.656;37.422;2023-03-23T05:34:29;13.23;;;8.30;;
28802;SDS011;15949;55.656;37.422;2023-03-23T05:39:37;12.32;;;8.00;;
28802;SDS011;15949;55.656;37.422;2023-03-23T05:44:43;13.77;;;8.30;;
28802;SDS011;15949;55.656;37.422;2023-03-23T05:49:50;15.27;;;8.20;;
28802;SDS011;15949;55.656;37.422;2023-03-23T05:54:57;13.00;;;8.27;;
28802;SDS011;15949;55.656;37.422;2023-03-23T06:00:03;13.57;;;8.15;;
28802;SDS011;15949;55.656;37.422;2023-03-23T06:05:19;12.93;;;8.02;;
28802;SDS011;15949;55.656;37.422;2023-03-23T06:10:25;12.98;;;8.45;;
28802;SDS011;15949;55.656;37.422;2023-03-23T06:15:31;12.40;;;7.80;;
28802;SDS011;15949;55.656;37.422;2023-03-23T06:20:37;13.82;;;8.18;;
28802;SDS011;15949;55.656;37.422;2023-03-23T06:25:44;11.98;;;7.53;;
28802;SDS011;15949;55.656;37.422;2023-03-23T06:30:49;12.13;;;7.43;;
28802;SDS011;15949;55.656;37.422;2023-03-23T06:35:56;11.20;;;7.82;;
28802;SDS011;15949;55.656;37.422;2023-03-23T06:41:02;11.77;;;7.32;;
28802;SDS011;15949;55.656;37.422;2023-03-23T06:46:09;12.15;;;7.53;;
28802;SDS011;15949;55.656;37.422;2023-03-23T06:51:16;11.02;;;7.60;;
28802;SDS011;15949;55.656;37.422;2023-03-23T06:56:22;12.95;;;7.40;;
28802;SDS011;15949;55.656;37.422;2023-03-23T07:01:29;11.48;;;6.82;;
28802;SDS011;15949;55.656;37.422;2023-03-23T07:06:35;10.90;;;6.70;;
28802;SDS011;15949;55.656;37.422;2023-03-23T07:11:41;11.05;;;6.72;;
28802;SDS011;15949;55.656;37.422;2023-03-23T07:16:47;9.52;;;6.63;;
28802;SDS011;15949;55.656;37.422;2023-03-23T07:21:53;13.38;;;7.05;;
28802;SDS011;15949;55.656;37.422;2023-03-23T07:26:59;10.15;;;6.22;;
28802;SDS011;15949;55.656;37.422;2023-03-23T07:32:06;10.40;;;6.80;;
28802;SDS011;15949;55.656;37.422;2023-03-23T07:42:22;9.77;;;6.30;;
28802;SDS011;15949;55.656;37.422;2023-03-23T07:47:27;11.68;;;6.40;;
28802;SDS011;15949;55.656;37.422;2023-03-23T07:52:34;8.02;;;5.70;;
28802;SDS011;15949;55.656;37.422;2023-03-23T07:57:40;9.23;;;6.13;;
28802;SDS011;15949;55.656;37.422;2023-03-23T08:02:46;9.48;;;5.82;;
28802;SDS011;15949;55.656;37.422;2023-03-23T08:07:53;7.45;;;5.85;;
28802;SDS011;15949;55.656;37.422;2023-03-23T08:12:59;8.60;;;6.32;;
28802;SDS011;15949;55.656;37.422;2023-03-23T08:18:05;8.45;;;5.43;;
28802;SDS011;15949;55.656;37.422;2023-03-23T08:23:11;8.88;;;6.00;;
28802;SDS011;15949;55.656;37.422;2023-03-23T08:28:17;10.27;;;7.82;;
28802;SDS011;15949;55.656;37.422;2023-03-23T08:33:23;10.38;;;6.85;;
28802;SDS011;15949;55.656;37.422;2023-03-23T08:38:29;23.40;;;13.57;;
28802;SDS011;15949;55.656;37.422;2023-03-23T08:43:35;12.82;;;7.15;;
28802;SDS011;15949;55.656;37.422;2023-03-23T08:48:41;6.85;;;6.10;;
28802;SDS011;15949;55.656;37.422;2023-03-23T08:53:48;9.55;;;7.72;;
28802;SDS011;15949;55.656;37.422;2023-03-23T08:58:54;8.52;;;6.00;;
28802;SDS011;15949;55.656;37.422;2023-03-23T09:03:59;8.30;;;5.55;;
28802;SDS011;15949;55.656;37.422;2023-03-23T09:09:05;10.80;;;6.90;;
28802;SDS011;15949;55.656;37.422;2023-03-23T09:14:11;8.90;;;6.32;;
28802;SDS011;15949;55.656;37.422;2023-03-23T09:19:17;7.57;;;5.82;;
28802;SDS011;15949;55.656;37.422;2023-03-23T09:24:23;9.48;;;5.70;;
28802;SDS011;15949;55.656;37.422;2023-03-23T09:29:29;6.72;;;5.05;;
28802;SDS011;15949;55.656;37.422;2023-03-23T09:34:35;8.57;;;5.00;;
28802;SDS011;15949;55.656;37.422;2023-03-23T09:39:43;8.90;;;5.30;;
28802;SDS011;15949;55.656;37.422;2023-03-23T09:50:15;6.93;;;5.07;;
28802;SDS011;15949;55.656;37.422;2023-03-23T09:55:23;6.72;;;4.85;;
28802;SDS011;15949;55.656;37.422;2023-03-23T10:00:31;5.88;;;4.57;;
28802;SDS011;15949;55.656;37.422;2023-03-23T10:05:51;8.25;;;4.63;;
28802;SDS011;15949;55.656;37.422;2023-03-23T10:11:04;7.78;;;4.60;;
28802;SDS011;15949;55.656;37.422;2023-03-23T10:16:33;5.47;;;4.55;;
28802;SDS011;15949;55.656;37.422;2023-03-23T10:21:45;16.98;;;11.40;;
28802;SDS011;15949;55.656;37.422;2023-03-23T10:27:10;6.00;;;4.40;;
28802;SDS011;15949;55.656;37.422;2023-03-23T10:32:36;6.95;;;3.90;;
28802;SDS011;15949;55.656;37.422;2023-03-23T10:37:50;5.15;;;3.63;;
28802;SDS011;15949;55.656;37.422;2023-03-23T10:43:02;5.65;;;4.00;;
28802;SDS011;15949;55.656;37.422;2023-03-23T10:48:25;4.53;;;3.85;;
28802;SDS011;15949;55.656;37.422;2023-03-23T10:53:42;6.13;;;3.83;;
28802;SDS011;15949;55.656;37.422;2023-03-23T10:58:49;5.03;;;4.10;;
28802;SDS011;15949;55.656;37.422;2023-03-23T11:03:54;4.90;;;3.55;;
28802;SDS011;15949;55.656;37.422;2023-03-23T11:09:09;4.97;;;3.70;;
28802;SDS011;15949;55.656;37.422;2023-03-23T11:19:34;5.15;;;3.70;;
28802;SDS011;15949;55.656;37.422;2023-03-23T11:24:42;5.10;;;3.70;;
28802;SDS011;15949;55.656;37.422;2023-03-23T11:29:55;5.80;;;3.60;;
28802;SDS011;15949;55.656;37.422;2023-03-23T11:35:03;4.85;;;3.72;;
28802;SDS011;15949;55.656;37.422;2023-03-23T11:40:18;5.55;;;3.85;;
28802;SDS011;15949;55.656;37.422;2023-03-23T11:45:39;5.00;;;3.80;;
28802;SDS011;15949;55.656;37.422;2023-03-23T12:01:40;4.55;;;3.50;;
28802;SDS011;15949;55.656;37.422;2023-03-23T12:06:54;6.50;;;3.97;;
28802;SDS011;15949;55.656;37.422;2023-03-23T12:17:57;7.00;;;3.50;;
28802;SDS011;15949;55.656;37.422;2023-03-23T12:23:24;8.57;;;3.47;;
28802;SDS011;15949;55.656;37.422;2023-03-23T12:34:36;4.32;;;3.63;;
28802;SDS011;15949;55.656;37.422;2023-03-23T12:45:06;5.35;;;4.10;;
28802;SDS011;15949;55.656;37.422;2023-03-23T12:50:18;8.65;;;3.50;;
28802;SDS011;15949;55.656;37.422;2023-03-23T12:55:44;16.95;;;9.23;;
28802;SDS011;15949;55.656;37.422;2023-03-23T13:22:17;6.68;;;4.30;;
28802;SDS011;15949;55.656;37.422;2023-03-23T13:27:29;4.80;;;3.72;;
28802;SDS011;15949;55.656;37.422;2023-03-23T13:32:38;5.00;;;3.70;;
28802;SDS011;15949;55.656;37.422;2023-03-23T13:37:49;7.75;;;3.78;;
28802;SDS011;15949;55.656;37.422;2023-03-23T13:42:58;6.45;;;3.60;;
28802;SDS011;15949;55.656;37.422;2023-03-23T13:53:24;6.00;;;3.65;;
28802;SDS011;15949;55.656;37.422;2023-03-23T13:58:52;8.38;;;3.65;;
28802;SDS011;15949;55.656;37.422;2023-03-23T14:04:12;7.10;;;3.63;;
28802;SDS011;15949;55.656;37.422;2023-03-23T14:09:27;5.70;;;3.88;;
28802;SDS011;15949;55.656;37.422;2023-03-23T14:14:42;5.68;;;3.72;;
28802;SDS011;15949;55.656;37.422;2023-03-23T14:19:54;7.47;;;4.00;;
28802;SDS011;15949;55.656;37.422;2023-03-23T14:25:08;6.50;;;4.45;;
28802;SDS011;15949;55.656;37.422;2023-03-23T14:30:27;5.32;;;4.00;;
28802;SDS011;15949;55.656;37.422;2023-03-23T14:35:40;7.25;;;4.00;;
28802;SDS011;15949;55.656;37.422;2023-03-23T14:40:48;5.10;;;3.97;;
28802;SDS011;15949;55.656;37.422;2023-03-23T14:45:54;6.22;;;4.85;;
28802;SDS011;15949;55.656;37.422;2023-03-23T14:51:02;8.45;;;4.55;;
28802;SDS011;15949;55.656;37.422;2023-03-23T14:56:16;6.47;;;4.53;;
28802;SDS011;15949;55.656;37.422;2023-03-23T15:01:27;8.13;;;5.07;;
28802;SDS011;15949;55.656;37.422;2023-03-23T15:06:35;6.80;;;4.53;;
28802;SDS011;15949;55.656;37.422;2023-03-23T15:11:42;6.30;;;4.70;;
28802;SDS011;15949;55.656;37.422;2023-03-23T15:16:51;7.85;;;4.72;;
28802;SDS011;15949;55.656;37.422;2023-03-23T15:27:27;9.32;;;4.70;;
28802;SDS011;15949;55.656;37.422;2023-03-23T15:32:39;7.30;;;5.50;;
28802;SDS011;15949;55.656;37.422;2023-03-23T15:37:47;7.13;;;5.32;;
28802;SDS011;15949;55.656;37.422;2023-03-23T15:43:06;8.38;;;5.05;;
28802;SDS011;15949;55.656;37.422;2023-03-23T15:48:24;12.10;;;6.05;;
28802;SDS011;15949;55.656;37.422;2023-03-23T15:53:35;13.25;;;7.03;;
28802;SDS011;15949;55.656;37.422;2023-03-23T15:58:43;12.60;;;7.15;;
28802;SDS011;15949;55.656;37.422;2023-03-23T16:09:20;7.95;;;5.28;;
28802;SDS011;15949;55.656;37.422;2023-03-23T16:14:26;7.32;;;5.03;;
28802;SDS011;15949;55.656;37.422;2023-03-23T16:19:32;7.05;;;5.32;;
28802;SDS011;15949;55.656;37.422;2023-03-23T16:24:37;8.27;;;5.15;;
28802;SDS011;15949;55.656;37.422;2023-03-23T16:29:43;7.07;;;5.22;;
28802;SDS011;15949;55.656;37.422;2023-03-23T16:34:48;12.68;;;7.75;;
28802;SDS011;15949;55.656;37.422;2023-03-23T16:39:54;7.03;;;5.20;;
28802;SDS011;15949;55.656;37.422;2023-03-23T16:45:01;8.07;;;4.97;;
28802;SDS011;15949;55.656;37.422;2023-03-23T16:50:08;9.43;;;5.18;;
28802;SDS011;15949;55.656;37.422;2023-03-23T16:55:16;7.78;;;5.13;;
28802;SDS011;15949;55.656;37.422;2023-03-23T17:00:22;8.90;;;4.97;;
28802;SDS011;15949;55.656;37.422;2023-03-23T17:05:29;9.25;;;5.25;;
28802;SDS011;15949;55.656;37.422;2023-03-23T17:10:36;8.70;;;6.00;;
28802;SDS011;15949;55.656;37.422;2023-03-23T17:15:43;7.30;;;5.38;;
28802;SDS011;15949;55.656;37.422;2023-03-23T17:20:53;16.67;;;5.55;;
28802;SDS011;15949;55.656;37.422;2023-03-23T17:25:59;10.30;;;5.93;;
28802;SDS011;15949;55.656;37.422;2023-03-23T17:31:05;10.48;;;5.60;;
28802;SDS011;15949;55.656;37.422;2023-03-23T17:36:11;8.25;;;5.70;;
28802;SDS011;15949;55.656;37.422;2023-03-23T17:41:17;9.25;;;6.05;;
28802;SDS011;15949;55.656;37.422;2023-03-23T17:46:25;11.20;;;6.10;;
28802;SDS011;15949;55.656;37.422;2023-03-23T17:51:31;11.05;;;5.70;;
28802;SDS011;15949;55.656;37.422;2023-03-23T17:56:37;9.90;;;6.80;;
28802;SDS011;15949;55.656;37.422;2023-03-23T18:01:42;10.80;;;6.68;;
28802;SDS011;15949;55.656;37.422;2023-03-23T18:06:48;13.75;;;7.30;;
28802;SDS011;15949;55.656;37.422;2023-03-23T18:11:54;9.70;;;6.78;;
28802;SDS011;15949;55.656;37.422;2023-03-23T18:17:00;9.10;;;6.85;;
28802;SDS011;15949;55.656;37.422;2023-03-23T18:22:06;11.02;;;7.00;;
28802;SDS011;15949;55.656;37.422;2023-03-23T18:27:12;11.82;;;6.80;;
28802;SDS011;15949;55.656;37.422;2023-03-23T18:32:17;12.75;;;6.95;;
28802;SDS011;15949;55.656;37.422;2023-03-23T18:37:23;11.40;;;6.88;;
28802;SDS011;15949;55.656;37.422;2023-03-23T18:42:29;11.95;;;6.90;;
28802;SDS011;15949;55.656;37.422;2023-03-23T18:47:35;12.25;;;7.03;;
28802;SDS011;15949;55.656;37.422;2023-03-23T18:52:42;14.00;;;7.25;;
28802;SDS011;15949;55.656;37.422;2023-03-23T18:57:49;14.60;;;7.43;;
28802;SDS011;15949;55.656;37.422;2023-03-23T19:02:54;9.90;;;7.07;;
28802;SDS011;15949;55.656;37.422;2023-03-23T19:08:00;16.67;;;7.28;;
28802;SDS011;15949;55.656;37.422;2023-03-23T19:13:06;11.25;;;7.50;;
28802;SDS011;15949;55.656;37.422;2023-03-23T19:18:12;11.88;;;6.93;;
28802;SDS011;15949;55.656;37.422;2023-03-23T19:23:19;10.00;;;6.45;;
28802;SDS011;15949;55.656;37.422;2023-03-23T19:28:25;8.57;;;6.70;;
28802;SDS011;15949;55.656;37.422;2023-03-23T19:33:31;9.43;;;6.22;;
28802;SDS011;15949;55.656;37.422;2023-03-23T19:38:37;8.95;;;6.00;;
28802;SDS011;15949;55.656;37.422;2023-03-23T19:43:43;10.88;;;6.93;;
28802;SDS011;15949;55.656;37.422;2023-03-23T19:48:48;7.95;;;6.05;;
28802;SDS011;15949;55.656;37.422;2023-03-23T19:53:57;10.07;;;5.93;;
28802;SDS011;15949;55.656;37.422;2023-03-23T19:59:03;10.77;;;7.07;;
28802;SDS011;15949;55.656;37.422;2023-03-23T20:04:09;8.90;;;6.32;;
28802;SDS011;15949;55.656;37.422;2023-03-23T20:09:15;9.93;;;5.82;;
28802;SDS011;15949;55.656;37.422;2023-03-23T20:14:21;10.05;;;5.50;;
28802;SDS011;15949;55.656;37.422;2023-03-23T20:19:26;8.32;;;5.68;;
28802;SDS011;15949;55.656;37.422;2023-03-23T20:24:32;8.50;;;5.53;;
28802;SDS011;15949;55.656;37.422;2023-03-23T20:29:37;11.02;;;6.13;;
28802;SDS011;15949;55.656;37.422;2023-03-23T20:34:43;7.82;;;6.10;;
28802;SDS011;15949;55.656;37.422;2023-03-23T20:39:52;8.40;;;5.93;;
28802;SDS011;15949;55.656;37.422;2023-03-23T20:44:58;13.02;;;6.60;;
28802;SDS011;15949;55.656;37.422;2023-03-23T20:50:05;9.65;;;6.65;;
28802;SDS011;15949;55.656;37.422;2023-03-23T20:55:11;9.60;;;7.20;;
28802;SDS011;15949;55.656;37.422;2023-03-23T21:00:19;10.57;;;7.05;;
28802;SDS011;15949;55.656;37.422;2023-03-23T21:05:25;10.25;;;7.05;;
28802;SDS011;15949;55.656;37.422;2023-03-23T21:10:31;9.60;;;6.95;;
28802;SDS011;15949;55.656;37.422;2023-03-23T21:15:38;9.82;;;7.10;;
28802;SDS011;15949;55.656;37.422;2023-03-23T21:20:44;9.55;;;6.72;;
28802;SDS011;15949;55.656;37.422;2023-03-23T21:25:51;10.07;;;7.15;;
28802;SDS011;15949;55.656;37.422;2023-03-23T21:31:01;9.27;;;7.43;;
28802;SDS011;15949;55.656;37.422;2023-03-23T21:36:09;11.35;;;8.13;;
28802;SDS011;15949;55.656;37.422;2023-03-23T21:41:15;10.15;;;7.70;;
28802;SDS011;15949;55.656;37.422;2023-03-23T21:46:21;12.38;;;8.65;;
28802;SDS011;15949;55.656;37.422;2023-03-23T21:51:27;12.65;;;8.30;;
28802;SDS011;15949;55.656;37.422;2023-03-23T21:56:33;11.40;;;8.57;;
28802;SDS011;15949;55.656;37.422;2023-03-23T22:01:39;13.43;;;9.10;;
28802;SDS011;15949;55.656;37.422;2023-03-23T22:06:45;16.52;;;9.63;;
28802;SDS011;15949;55.656;37.422;2023-03-23T22:11:52;15.15;;;9.55;;
28802;SDS011;15949;55.656;37.422;2023-03-23T22:16:57;15.45;;;9.95;;
28802;SDS011;15949;55.656;37.422;2023-03-23T22:22:04;12.98;;;9.63;;
28802;SDS011;15949;55.656;37.422;2023-03-23T22:27:10;12.52;;;9.90;;
28802;SDS011;15949;55.656;37.422;2023-03-23T22:32:17;14.60;;;10.57;;
28802;SDS011;15949;55.656;37.422;2023-03-23T22:37:23;12.93;;;10.70;;
28802;SDS011;15949;55.656;37.422;2023-03-23T22:42:29;16.45;;;11.35;;
28802;SDS011;15949;55.656;37.422;2023-03-23T22:47:35;13.52;;;9.90;;
28802;SDS011;15949;55.656;37.422;2023-03-23T22:52:42;15.38;;;11.38;;
28802;SDS011;15949;55.656;37.422;2023-03-23T22:57:48;14.77;;;10.48;;
28802;SDS011;15949;55.656;37.422;2023-03-23T23:02:53;15.52;;;11.65;;
28802;SDS011;15949;55.656;37.422;2023-03-23T23:07:59;17.83;;;11.88;;
28802;SDS011;15949;55.656;37.422;2023-03-23T23:13:05;17.60;;;11.65;;
28802;SDS011;15949;55.656;37.422;2023-03-23T23:18:12;15.75;;;11.90;;
28802;SDS011;15949;55.656;37.422;2023-03-23T23:23:18;17.77;;;12.60;;
28802;SDS011;15949;55.656;37.422;2023-03-23T23:28:24;18.02;;;12.20;;
28802;SDS011;15949;55.656;37.422;2023-03-23T23:33:31;18.23;;;12.73;;
28802;SDS011;15949;55.656;37.422;2023-03-23T23:38:36;19.05;;;12.48;;
28802;SDS011;15949;55.656;37.422;2023-03-23T23:43:42;18.80;;;13.27;;
28802;SDS011;15949;55.656;37.422;2023-03-23T23:48:48;18.75;;;13.07;;
28802;SDS011;15949;55.656;37.422;2023-03-23T23:53:54;19.00;;;13.13;;
28802;SDS011;15949;55.656;37.422;2023-03-23T23:59:02;16.70;;;12.57;;
